| time (UTC) | temp C | wind direction | speed KPH | gust KPH | rain 1hr cm | rain 24hr cm | rain mn cm | humidity % | barometer mb |
| 20260502123005 | 2 | 351 | 8.0 | 14.5 | 0.00 | 0.00 | 0.00 | 84 | 1020.1 |
| 20260502122010 | 1 | 324 | 6.4 | 9.7 | 0.00 | 0.00 | 0.00 | 85 | 1020.2 |
| 20260502121017 | 1 | 28 | 3.2 | 12.9 | 0.00 | 0.00 | 0.00 | 85 | 1020.1 |
| 20260502114959 | 0 | 338 | 6.4 | 12.9 | 0.00 | 0.00 | 0.00 | 87 | 1020.0 |
| 20260502114005 | 0 | 336 | 6.4 | 8.0 | 0.00 | 0.00 | 0.00 | 88 | 1019.8 |
| 20260502113003 | 0 | 298 | 1.6 | 4.8 | 0.00 | 0.00 | 0.00 | 87 | 1019.7 |
| 20260502111958 | 0 | 298 | 3.2 | 4.8 | 0.00 | 0.00 | 0.00 | 86 | 1019.7 |
| 20260502110957 | -1 | 298 | 3.2 | 4.8 | 0.00 | 0.00 | 0.00 | 85 | 1019.7 |
| 20260502110000 | 0 | 298 | 3.2 | 4.8 | 0.00 | 0.00 | 0.00 | 83 | 1019.7 |
| 20260502105009 | 0 | 298 | 3.2 | 3.2 | 0.00 | 0.00 | 0.00 | 82 | 1019.7 |
| 20260502104008 | 0 | 298 | 1.6 | 4.8 | 0.00 | 0.00 | 0.00 | 80 | 1019.6 |
| 20260502103020 | 0 | 298 | 1.6 | 4.8 | 0.00 | 0.00 | 0.00 | 79 | 1019.7 |
| 20260502102031 | 0 | 298 | 3.2 | 4.8 | 0.00 | 0.00 | 0.00 | 79 | 1019.7 |
| 20260502101005 | 0 | 298 | 1.6 | 6.4 | 0.00 | 0.00 | 0.00 | 78 | 1019.7 |
| 20260502091015 | 1 | 291 | 4.8 | 8.0 | 0.00 | 0.00 | 0.00 | 76 | 1019.2 |
| 20260502071012 | 1 | 303 | 3.2 | 8.0 | 0.00 | 0.00 | 0.00 | 75 | 1019.1 |
| 20260502065959 | 1 | 300 | 4.8 | 8.0 | 0.00 | 0.00 | 0.00 | 76 | 1019.0 |
| 20260502064958 | 1 | 281 | 6.4 | 11.3 | 0.00 | 0.00 | 0.00 | 76 | 1019.1 |
| 20260502063958 | 1 | 288 | 4.8 | 8.0 | 0.00 | 0.00 | 0.00 | 76 | 1019.1 |
| 20260502062957 | 1 | 290 | 4.8 | 6.4 | 0.00 | 0.00 | 0.00 | 76 | 1019.1 |
| 20260502061956 | 1 | 309 | 4.8 | 6.4 | 0.00 | 0.00 | 0.00 | 75 | 1019.3 |
| 20260502061022 | 1 | 325 | 3.2 | 8.0 | 0.00 | 0.00 | 0.00 | 75 | 1019.3 |
| 20260502060002 | 1 | 319 | 4.8 | 11.3 | 0.00 | 0.00 | 0.00 | 75 | 1019.4 |
| 20260502055003 | 1 | 296 | 4.8 | 8.0 | 0.00 | 0.00 | 0.00 | 75 | 1019.4 |
| 20260502053958 | 1 | 292 | 4.8 | 8.0 | 0.00 | 0.00 | 0.00 | 74 | 1019.5 |
| 20260502053001 | 1 | 289 | 4.8 | 6.4 | 0.00 | 0.00 | 0.00 | 74 | 1019.5 |
| 20260502052004 | 1 | 289 | 4.8 | 8.0 | 0.00 | 0.00 | 0.00 | 74 | 1019.4 |
| 20260502051038 | 1 | 292 | 4.8 | 8.0 | 0.00 | 0.00 | 0.00 | 74 | 1019.2 |
| 20260502050022 | 1 | 295 | 4.8 | 6.4 | 0.00 | 0.00 | 0.00 | 75 | 1019.1 |
| 20260502045056 | 1 | 296 | 4.8 | 6.4 | 0.00 | 0.00 | 0.00 | 75 | 1019.2 |
| 20260502044038 | 1 | 300 | 4.8 | 6.4 | 0.00 | 0.00 | 0.00 | 73 | 1019.2 |
| 20260502043008 | 1 | 300 | 3.2 | 6.4 | 0.00 | 0.00 | 0.00 | 72 | 1019.0 |
| 20260502042000 | 1 | 302 | 4.8 | 8.0 | 0.00 | 0.00 | 0.00 | 71 | 1019.1 |
| 20260502040959 | 1 | 300 | 3.2 | 6.4 | 0.00 | 0.00 | 0.00 | 70 | 1019.0 |
| 20260502040006 | 1 | 300 | 3.2 | 9.7 | 0.00 | 0.00 | 0.00 | 70 | 1019.0 |
| 20260502035001 | 1 | 312 | 4.8 | 8.0 | 0.00 | 0.00 | 0.00 | 69 | 1018.9 |
| 20260502034010 | 1 | 303 | 3.2 | 6.4 | 0.00 | 0.00 | 0.00 | 68 | 1019.1 |
| 20260502032959 | 2 | 309 | 4.8 | 12.9 | 0.00 | 0.00 | 0.00 | 67 | 1019.0 |
| 20260502032125 | 2 | 317 | 4.8 | 12.9 | 0.00 | 0.00 | 0.00 | 66 | 1018.9 |
| 20260502031010 | 2 | 311 | 4.8 | 12.9 | 0.00 | 0.00 | 0.00 | 64 | 1018.9 |
| 20260502030004 | 2 | 338 | 4.8 | 9.7 | 0.00 | 0.00 | 0.00 | 63 | 1018.9 |
| 20260502025005 | 2 | 314 | 4.8 | 11.3 | 0.00 | 0.00 | 0.00 | 62 | 1018.9 |
| 20260502024001 | 2 | 332 | 6.4 | 9.7 | 0.00 | 0.00 | 0.00 | 60 | 1018.9 |
| 20260502023001 | 3 | 342 | 8.0 | 16.1 | 0.00 | 0.00 | 0.00 | 59 | 1018.9 |
| 20260502021959 | 3 | 323 | 6.4 | 17.7 | 0.00 | 0.00 | 0.00 | 59 | 1018.8 |
| 20260502021029 | 3 | 307 | 8.0 | 17.7 | 0.00 | 0.00 | 0.00 | 57 | 1018.7 |
| 20260502020032 | 3 | 316 | 9.7 | 20.9 | 0.00 | 0.00 | 0.00 | 57 | 1018.4 |
| 20260502015003 | 3 | 332 | 6.4 | 17.7 | 0.00 | 0.00 | 0.00 | 57 | 1018.3 |
| 20260502014025 | 3 | 341 | 9.7 | 19.3 | 0.00 | 0.00 | 0.00 | 58 | 1018.2 |
| 20260502013037 | 3 | 325 | 6.4 | 14.5 | 0.00 | 0.00 | 0.00 | 60 | 1018.2 |
| 20260502012003 | 4 | 309 | 9.7 | 20.9 | 0.00 | 0.00 | 0.00 | 59 | 1018.1 |
| 20260502011029 | 4 | 321 | 8.0 | 17.7 | 0.00 | 0.00 | 0.00 | 58 | 1018.1 |
| 20260502010012 | 4 | 337 | 11.3 | 19.3 | 0.00 | 0.00 | 0.00 | 58 | 1017.9 |
| 20260502005010 | 4 | 343 | 8.0 | 17.7 | 0.00 | 0.00 | 0.00 | 56 | 1017.7 |
| 20260502004002 | 4 | 284 | 14.5 | 19.3 | 0.00 | 0.00 | 0.00 | 56 | 1018.0 |
| 20260502003008 | 4 | 302 | 16.1 | 24.1 | 0.00 | 0.00 | 0.00 | 56 | 1018.0 |
| 20260502002007 | 4 | 288 | 12.9 | 20.9 | 0.00 | 0.00 | 0.00 | 57 | 1017.9 |
| 20260502000959 | 4 | 280 | 14.5 | 25.7 | 0.00 | 0.00 | 0.00 | 56 | 1017.9 |
| 20260502000000 | 5 | 284 | 19.3 | 27.4 | 0.00 | 0.00 | 0.00 | 54 | 1017.9 |
| 20260501235000 | 5 | 272 | 19.3 | 27.4 | 0.00 | 0.00 | 0.00 | 51 | 1017.8 |
| 20260501234023 | 6 | 279 | 12.9 | 25.7 | 0.00 | 0.00 | 0.00 | 50 | 1017.7 |
| 20260501233016 | 6 | 267 | 17.7 | 27.4 | 0.00 | 0.00 | 0.00 | 51 | 1017.6 |
| 20260501231958 | 6 | 284 | 24.1 | 38.6 | 0.00 | 0.00 | 0.00 | 49 | 1017.6 |
| 20260501231006 | 7 | 294 | 22.5 | 32.2 | 0.00 | 0.00 | 0.00 | 50 | 1017.4 |
| 20260501230003 | 7 | 287 | 20.9 | 33.8 | 0.00 | 0.00 | 0.00 | 49 | 1017.4 |
| 20260501225002 | 7 | 287 | 14.5 | 29.0 | 0.00 | 0.00 | 0.00 | 49 | 1017.3 |
| 20260501224005 | 7 | 290 | 14.5 | 33.8 | 0.00 | 0.00 | 0.00 | 49 | 1017.2 |
| 20260501223011 | 7 | 291 | 16.1 | 27.4 | 0.00 | 0.00 | 0.00 | 49 | 1017.3 |
| 20260501222020 | 7 | 283 | 24.1 | 33.8 | 0.00 | 0.00 | 0.00 | 50 | 1017.2 |
| 20260501221007 | 7 | 251 | 24.1 | 35.4 | 0.00 | 0.00 | 0.00 | 53 | 1017.2 |
| 20260501220016 | 7 | 248 | 19.3 | 29.0 | 0.00 | 0.00 | 0.00 | 55 | 1017.2 |
| 20260501215026 | 7 | 282 | 16.1 | 30.6 | 0.00 | 0.00 | 0.00 | 54 | 1017.1 |
| 20260501214035 | 8 | 280 | 25.7 | 37.0 | 0.00 | 0.00 | 0.00 | 54 | 1017.1 |
| 20260501213014 | 8 | 288 | 16.1 | 33.8 | 0.00 | 0.00 | 0.00 | 53 | 1017.0 |
| 20260501212004 | 8 | 302 | 16.1 | 35.4 | 0.00 | 0.00 | 0.00 | 54 | 1016.8 |
| 20260501211012 | 9 | 268 | 17.7 | 37.0 | 0.00 | 0.00 | 0.00 | 54 | 1016.8 |
| 20260501210001 | 9 | 286 | 12.9 | 30.6 | 0.00 | 0.00 | 0.00 | 53 | 1016.7 |
| 20260501205004 | 8 | 281 | 16.1 | 24.1 | 0.00 | 0.00 | 0.00 | 54 | 1016.7 |
| 20260501204011 | 8 | 300 | 16.1 | 29.0 | 0.00 | 0.00 | 0.00 | 48 | 1016.8 |
| 20260501203027 | 10 | 268 | 16.1 | 29.0 | 0.00 | 0.00 | 0.00 | 53 | 1016.8 |
| 20260501202000 | 9 | 279 | 20.9 | 33.8 | 0.00 | 0.00 | 0.00 | 53 | 1016.7 |
| 20260501201015 | 8 | 290 | 16.1 | 30.6 | 0.00 | 0.00 | 0.00 | 57 | 1016.9 |
| 20260501200003 | 7 | 288 | 19.3 | 27.4 | 0.00 | 0.00 | 0.00 | 60 | 1016.8 |
| 20260501195001 | 7 | 281 | 14.5 | 24.1 | 0.00 | 0.00 | 0.00 | 63 | 1016.7 |
| 20260501194006 | 7 | 292 | 11.3 | 24.1 | 0.00 | 0.00 | 0.00 | 64 | 1016.7 |
| 20260501193010 | 7 | 311 | 19.3 | 24.1 | 0.00 | 0.00 | 0.00 | 63 | 1016.7 |
| 20260501191959 | 7 | 196 | 9.7 | 22.5 | 0.00 | 0.00 | 0.00 | 64 | 1016.6 |
| 20260501191006 | 7 | 295 | 14.5 | 27.4 | 0.00 | 0.00 | 0.00 | 65 | 1016.7 |
| 20260501190002 | 7 | 283 | 12.9 | 19.3 | 0.00 | 0.00 | 0.00 | 62 | 1016.6 |
| 20260501185016 | 7 | 294 | 12.9 | 19.3 | 0.00 | 0.00 | 0.00 | 63 | 1016.5 |
| 20260501184005 | 7 | 303 | 14.5 | 20.9 | 0.00 | 0.00 | 0.00 | 59 | 1016.5 |
| 20260501183018 | 7 | 289 | 9.7 | 22.5 | 0.00 | 0.00 | 0.00 | 61 | 1016.4 |
| 20260501182005 | 7 | 266 | 6.4 | 16.1 | 0.00 | 0.00 | 0.00 | 58 | 1016.3 |
| 20260501181014 | 7 | 326 | 8.0 | 16.1 | 0.00 | 0.00 | 0.00 | 59 | 1016.3 |
| 20260501180007 | 7 | 312 | 6.4 | 20.9 | 0.00 | 0.00 | 0.00 | 60 | 1016.3 |
| 20260501175004 | 8 | 5 | 8.0 | 22.5 | 0.00 | 0.00 | 0.00 | 58 | 1016.3 |
| 20260501173959 | 7 | 22 | 8.0 | 22.5 | 0.00 | 0.00 | 0.00 | 60 | 1016.2 |
| 20260501173001 | 7 | 337 | 12.9 | 22.5 | 0.00 | 0.00 | 0.00 | 63 | 1016.3 |
| 20260501172012 | 7 | 268 | 6.4 | 17.7 | 0.00 | 0.00 | 0.00 | 64 | 1016.4 |
| 20260501171005 | 7 | 292 | 4.8 | 17.7 | 0.00 | 0.00 | 0.00 | 61 | 1016.4 |
| 20260501170030 | 7 | 322 | 8.0 | 19.3 | 0.00 | 0.00 | 0.00 | 61 | 1016.5 |
| 20260501165001 | 7 | 348 | 12.9 | 16.1 | 0.00 | 0.00 | 0.00 | 65 | 1016.6 |
| 20260501164041 | 6 | 351 | 6.4 | 19.3 | 0.00 | 0.00 | 0.00 | 67 | 1016.6 |
| 20260501163003 | 6 | 319 | 8.0 | 17.7 | 0.00 | 0.00 | 0.00 | 67 | 1016.6 |
| 20260501162016 | 5 | 24 | 3.2 | 17.7 | 0.00 | 0.00 | 0.00 | 70 | 1016.6 |
| 20260501160959 | 5 | 348 | 8.0 | 22.5 | 0.00 | 0.00 | 0.00 | 68 | 1016.6 |
| 20260501160004 | 5 | 319 | 12.9 | 22.5 | 0.00 | 0.00 | 0.00 | 64 | 1016.7 |
| 20260501154958 | 6 | 339 | 9.7 | 19.3 | 0.00 | 0.00 | 0.00 | 65 | 1016.7 |
| 20260501153957 | 6 | 302 | 12.9 | 20.9 | 0.00 | 0.00 | 0.00 | 63 | 1016.6 |
| 20260501153007 | 6 | 9 | 6.4 | 17.7 | 0.00 | 0.00 | 0.00 | 63 | 1016.5 |
| 20260501152002 | 6 | 360 | 8.0 | 17.7 | 0.00 | 0.00 | 0.00 | 65 | 1016.5 |
| 20260501151010 | 6 | 38 | 4.8 | 14.5 | 0.00 | 0.00 | 0.00 | 64 | 1016.5 |
| 20260501150021 | 6 | 330 | 6.4 | 14.5 | 0.00 | 0.00 | 0.00 | 65 | 1016.4 |
| 20260501145006 | 6 | 298 | 8.0 | 14.5 | 0.00 | 0.03 | 0.00 | 67 | 1016.4 |
| 20260501144124 | 5 | 360 | 4.8 | 14.5 | 0.00 | 0.03 | 0.00 | 67 | 1016.3 |
| 20260501143022 | 5 | 319 | 9.7 | 19.3 | 0.00 | 0.03 | 0.00 | 66 | 1016.2 |
| 20260501142006 | 5 | 355 | 8.0 | 14.5 | 0.00 | 0.03 | 0.00 | 67 | 1016.3 |
| 20260501141005 | 5 | 317 | 9.7 | 14.5 | 0.00 | 0.03 | 0.00 | 66 | 1016.1 |
| 20260501140008 | 5 | 346 | 4.8 | 14.5 | 0.00 | 0.03 | 0.00 | 68 | 1016.0 |